Airfield :
LOGIN :

Register | Disclaimer

   EN    FR    IT 

 










Legend :    VFR   Marginal VFR   IFR   Intensive IFR   Very Intensive IFR
Visi :
Ceiling :
>= 8 km
>= 3000ft
5 to 8 km
1000 to 3000 ft
1500m to 5 km
500 to 1000 ft
800 to 1500m
200 to 500 ft
< 800m
< 200 ft
Symbols :   Thunderstorms  Fog  Heavy snow  Heavy precipitations  Wind > 20 kt
SIGMETs :     Misc.  Thunderstorms  Icing  Turbulence  Mountain Waves  Volcanic Ashes







- Airport Elevation : 0 ft


ETEB - Ansbach Army Heliport

CURRENT METAR :
  • 200856Z AUTO 26005KT 9999 CLR 20/17 A2996 RMK AO2 SLP139 60005 T02020168 55004 $

EXPIRED METARs :
  • 200756Z AUTO 23003KT 9999 CLR 17/16 A2994 RMK AO2 RAE29DZB29E30 SLP134 P0003 T01710159 $
  • 200730Z AUTO 23007KT 9999 CLR 16/16 A2995 RMK AO2 RAE29DZB29E30 SLP137 $
  • 200656Z AUTO 16004KT 9999 RA SCT036 16/16 A2994 RMK AO2 RAB18E29DZB34E38RAB38 SLP132 P0002 T01620162 $
  • 200634Z AUTO 00000KT 9999 -DZ SCT065 SCT080 16/16 A2995 RMK AO2 RAB18E29DZB34 SLP136 $

TAF TAF ETEB
Valid from the 20 at 05:00 until the 21 at 11:00 UTC


200508Z 2005/2111 27006KT 8000 -SHRA BKN050 QNH2989INS
TEMPO 2012/2016 27012KT 8000 -TSRA BKN030CB
BECMG 2017/2018 VRB06KT 9999 NSW BKN040 QNH2991INS
BECMG 2021/2022 VRB06KT 6000 BR SCT050 QNH2993INS TX30/2014Z TN15/2103Z
No reported NOTAMs for that airfield.



MET'MAP, your aeronautical weather chart ! - Copyright ORBIFLY December 2007 - Disclaimer

ORBIFLY MET'MAP TEAM :

Programming & Development : Alexandra Zaïnal
Concept & Development : Baudouin d'Aumeries
Co-Development & Prog : Marc-Olivier Méhu
Technical & hardware support : Manuel Goepfert

Contact : metmap@orbifly.com




SOURCES & CREDITS :

   NOAA